createdAt,value
2023-12-26T00:07:02.263Z,22.10
2023-12-26T00:17:30.063Z,22.10
2023-12-26T00:27:57.909Z,22.08
2023-12-26T00:38:25.838Z,22.06
2023-12-26T00:48:53.924Z,22.04
2023-12-26T00:59:21.914Z,22.03
2023-12-26T01:09:49.821Z,22.02
2023-12-26T01:20:17.845Z,22.01
2023-12-26T01:30:45.810Z,22.00
2023-12-26T01:41:13.710Z,21.99
2023-12-26T01:51:43.870Z,21.99
2023-12-26T02:02:12.083Z,21.98
2023-12-26T02:12:39.945Z,21.97
2023-12-26T02:23:07.977Z,21.97
2023-12-26T02:33:36.756Z,21.96
2023-12-26T02:44:04.536Z,21.97
2023-12-26T02:54:31.890Z,22.04
2023-12-26T03:04:59.213Z,22.12
2023-12-26T03:15:26.526Z,22.19
2023-12-26T03:25:54.051Z,22.24
2023-12-26T03:36:21.651Z,22.25
2023-12-26T03:46:49.472Z,22.21
2023-12-26T03:57:17.324Z,22.13
2023-12-26T04:07:45.169Z,22.07
2023-12-26T04:18:12.988Z,22.02
2023-12-26T04:28:40.911Z,21.98
2023-12-26T04:39:08.858Z,21.95
2023-12-26T04:49:36.726Z,21.93
2023-12-26T05:00:04.824Z,21.91
2023-12-26T05:10:35.167Z,21.90
2023-12-26T05:21:03.450Z,21.88
2023-12-26T05:31:31.280Z,21.87
2023-12-26T05:41:59.137Z,21.86
2023-12-26T05:52:27.204Z,21.85
2023-12-26T06:02:55.307Z,21.84
2023-12-26T06:13:23.545Z,21.83
2023-12-26T06:23:51.437Z,21.82
2023-12-26T06:34:19.628Z,21.81
2023-12-26T06:44:47.561Z,21.81
2023-12-26T06:55:16.828Z,21.80
2023-12-26T07:05:45.949Z,21.80
2023-12-26T07:16:13.921Z,21.79
2023-12-26T07:26:41.795Z,21.79
2023-12-26T07:37:09.610Z,21.78
2023-12-26T07:47:37.464Z,21.78
2023-12-26T07:58:06.493Z,21.78
2023-12-26T08:08:34.238Z,21.78
2023-12-26T08:19:03.538Z,21.78
2023-12-26T08:29:31.052Z,21.79
2023-12-26T08:39:58.808Z,21.86
2023-12-26T08:50:26.241Z,21.96
2023-12-26T09:00:54.389Z,21.99
2023-12-26T09:11:22.265Z,21.95
2023-12-26T09:21:50.020Z,21.90
2023-12-26T09:32:17.911Z,21.89
2023-12-26T09:42:45.735Z,21.90
2023-12-26T09:53:17.552Z,21.92
2023-12-26T10:03:47.290Z,21.94
2023-12-26T10:14:28.995Z,21.97
2023-12-26T10:24:56.736Z,22.02
2023-12-26T10:35:25.836Z,22.11
2023-12-26T10:45:57.125Z,22.20
2023-12-26T10:56:27.015Z,22.27
2023-12-26T11:06:55.069Z,22.32
2023-12-26T11:17:23.151Z,22.36
2023-12-26T11:27:51.091Z,22.38
2023-12-26T11:38:20.632Z,22.39
2023-12-26T11:48:49.776Z,22.39
2023-12-26T11:59:18.248Z,22.40
2023-12-26T12:09:46.110Z,22.39
2023-12-26T12:20:20.822Z,22.39
2023-12-26T12:31:15.950Z,22.38
2023-12-26T12:41:43.972Z,22.37
2023-12-26T12:52:12.703Z,22.36
2023-12-26T13:02:40.892Z,22.35
2023-12-26T13:13:08.928Z,22.35
2023-12-26T13:23:36.721Z,22.36
2023-12-26T13:34:04.738Z,22.36
2023-12-26T13:44:32.810Z,22.35
2023-12-26T13:55:00.618Z,22.36
2023-12-26T14:05:28.552Z,22.35
2023-12-26T14:15:56.365Z,22.34
2023-12-26T14:26:24.206Z,22.33
2023-12-26T14:36:51.971Z,22.35
2023-12-26T14:47:19.816Z,22.35
2023-12-26T14:57:47.550Z,22.37
2023-12-26T15:08:15.390Z,22.36
2023-12-26T15:18:43.263Z,22.37
2023-12-26T15:29:11.077Z,22.40
2023-12-26T15:39:39.255Z,22.43
2023-12-26T15:50:08.905Z,22.42
2023-12-26T16:00:38.429Z,22.40
2023-12-26T16:11:11.004Z,22.36
2023-12-26T16:21:38.976Z,22.34
2023-12-26T16:32:07.463Z,22.34
2023-12-26T16:42:35.423Z,22.35
2023-12-26T16:53:03.423Z,22.37
2023-12-26T17:03:31.382Z,22.40
2023-12-26T17:13:59.805Z,22.40
2023-12-26T17:24:27.697Z,22.38
2023-12-26T17:34:55.492Z,22.36
2023-12-26T17:45:23.808Z,22.35
2023-12-26T17:55:52.245Z,22.34
2023-12-26T18:06:20.031Z,22.34
2023-12-26T18:16:47.942Z,22.34
2023-12-26T18:27:15.745Z,22.33
2023-12-26T18:37:43.543Z,22.33
2023-12-26T18:48:11.773Z,22.32
2023-12-26T18:58:39.978Z,22.29
2023-12-26T19:09:12.114Z,22.26
2023-12-26T19:19:40.415Z,22.26
2023-12-26T19:30:10.990Z,22.25
2023-12-26T19:40:38.525Z,22.22
2023-12-26T19:51:06.755Z,22.20
2023-12-26T20:01:34.761Z,22.19
2023-12-26T20:12:02.839Z,22.17
2023-12-26T20:22:30.847Z,22.17
2023-12-26T20:32:58.777Z,22.18
2023-12-26T20:43:26.870Z,22.21
2023-12-26T20:53:54.718Z,22.26
2023-12-26T21:04:22.517Z,22.29
2023-12-26T21:14:51.830Z,22.30
2023-12-26T21:25:19.950Z,22.27
2023-12-26T21:35:47.742Z,22.26
2023-12-26T21:46:16.441Z,22.25
2023-12-26T21:56:47.071Z,22.23
2023-12-26T22:07:15.330Z,22.23
2023-12-26T22:17:43.288Z,22.23
2023-12-26T22:28:11.138Z,22.22
2023-12-26T22:38:39.151Z,22.23
2023-12-26T22:49:07.250Z,22.22
2023-12-26T22:59:35.074Z,22.22
2023-12-26T23:10:02.810Z,22.22
2023-12-26T23:20:30.654Z,22.22
2023-12-26T23:30:58.577Z,22.21
2023-12-26T23:41:26.464Z,22.21
2023-12-26T23:51:55.016Z,22.20
